TimeCDT,TemperatureF,Dew PointF,Humidity,Sea Level PressureIn,VisibilityMPH,Wind Direction,Wind SpeedMPH,Gust SpeedMPH,PrecipitationIn,Events,Conditions,WindDirDegrees,DateUTC
12:54 AM,66.9,55.0,66,29.92,10.0,Calm,Calm,-,N/A,,Clear,0,2013-06-17 05:54:00
1:54 AM,63.0,55.0,75,29.92,10.0,Calm,Calm,-,N/A,,Clear,0,2013-06-17 06:54:00
2:54 AM,63.0,55.9,78,29.91,10.0,Calm,Calm,-,N/A,,Clear,0,2013-06-17 07:54:00
3:54 AM,61.0,57.0,87,29.91,10.0,Calm,Calm,-,N/A,,Clear,0,2013-06-17 08:54:00
4:54 AM,60.1,57.0,90,29.91,10.0,Calm,Calm,-,N/A,,Clear,0,2013-06-17 09:54:00
5:54 AM,60.1,57.0,90,29.91,10.0,SSW,3.5,-,N/A,,Clear,210,2013-06-17 10:54:00
6:54 AM,64.0,60.1,87,29.94,10.0,Calm,Calm,-,N/A,,Clear,0,2013-06-17 11:54:00
7:54 AM,71.1,57.9,63,29.94,10.0,West,5.8,-,N/A,,Clear,260,2013-06-17 12:54:00
8:54 AM,75.0,55.9,51,29.95,10.0,West,5.8,-,N/A,,Clear,280,2013-06-17 13:54:00
9:54 AM,79.0,57.9,48,29.94,10.0,Variable,3.5,-,N/A,,Clear,0,2013-06-17 14:54:00
10:54 AM,81.0,59.0,47,29.93,10.0,West,4.6,-,N/A,,Clear,260,2013-06-17 15:54:00
11:54 AM,84.0,55.9,38,29.93,10.0,Variable,6.9,-,N/A,,Clear,0,2013-06-17 16:54:00
12:54 PM,84.9,55.9,37,29.94,10.0,NW,8.1,-,N/A,,Clear,320,2013-06-17 17:54:00
1:54 PM,86.0,54.0,33,29.92,10.0,WNW,11.5,-,N/A,,Clear,290,2013-06-17 18:54:00
2:54 PM,88.0,55.9,34,29.91,10.0,NW,9.2,-,N/A,,Clear,320,2013-06-17 19:54:00
3:54 PM,88.0,51.1,28,29.89,10.0,West,12.7,21.9,N/A,,Clear,280,2013-06-17 20:54:00
4:54 PM,87.1,52.0,30,29.87,10.0,NW,17.3,23.0,N/A,,Scattered Clouds,320,2013-06-17 21:54:00
5:54 PM,86.0,52.0,31,29.87,10.0,NNW,16.1,-,N/A,,Clear,330,2013-06-17 22:54:00
6:54 PM,81.0,52.0,36,29.86,10.0,NW,6.9,-,N/A,,Partly Cloudy,310,2013-06-17 23:54:00
7:54 PM,81.0,55.0,41,29.86,10.0,NW,3.5,-,N/A,,Partly Cloudy,320,2013-06-18 00:54:00
8:54 PM,73.9,57.0,55,29.88,10.0,North,4.6,-,N/A,,Clear,350,2013-06-18 01:54:00
9:54 PM,70.0,55.0,59,29.90,10.0,NNW,4.6,-,N/A,,Clear,340,2013-06-18 02:54:00
10:54 PM,68.0,55.9,65,29.91,10.0,Calm,Calm,-,N/A,,Clear,0,2013-06-18 03:54:00
11:54 PM,68.0,55.0,63,29.92,10.0,WNW,3.5,-,N/A,,Clear,300,2013-06-18 04:54:00